sensor_id;sensor_type;location;lat;lon;timestamp;P1;durP1;ratioP1;P2;durP2;ratioP2
9968;SDS011;5025;48.890;9.278;2023-07-29T00:01:45;2.00;;;1.90;;
9968;SDS011;5025;48.890;9.278;2023-07-29T00:04:11;1.90;;;1.80;;
9968;SDS011;5025;48.890;9.278;2023-07-29T00:06:36;1.90;;;1.80;;
9968;SDS011;5025;48.890;9.278;2023-07-29T00:09:02;1.90;;;1.80;;
9968;SDS011;5025;48.890;9.278;2023-07-29T00:11:28;2.00;;;1.90;;
9968;SDS011;5025;48.890;9.278;2023-07-29T00:13:53;1.60;;;1.60;;
9968;SDS011;5025;48.890;9.278;2023-07-29T00:16:19;2.00;;;1.70;;
9968;SDS011;5025;48.890;9.278;2023-07-29T00:18:47;2.00;;;1.90;;
9968;SDS011;5025;48.890;9.278;2023-07-29T00:21:12;1.70;;;1.70;;
9968;SDS011;5025;48.890;9.278;2023-07-29T00:23:38;1.73;;;1.73;;
9968;SDS011;5025;48.890;9.278;2023-07-29T00:26:03;1.70;;;1.70;;
9968;SDS011;5025;48.890;9.278;2023-07-29T00:28:28;1.70;;;1.60;;
9968;SDS011;5025;48.890;9.278;2023-07-29T00:30:53;1.80;;;1.70;;
9968;SDS011;5025;48.890;9.278;2023-07-29T00:33:19;1.60;;;1.60;;
9968;SDS011;5025;48.890;9.278;2023-07-29T00:35:45;1.60;;;1.60;;
9968;SDS011;5025;48.890;9.278;2023-07-29T00:38:11;1.70;;;1.70;;
9968;SDS011;5025;48.890;9.278;2023-07-29T00:40:36;1.60;;;1.57;;
9968;SDS011;5025;48.890;9.278;2023-07-29T00:43:02;1.40;;;1.40;;
9968;SDS011;5025;48.890;9.278;2023-07-29T00:45:27;1.43;;;1.43;;
9968;SDS011;5025;48.890;9.278;2023-07-29T00:47:54;1.40;;;1.40;;
9968;SDS011;5025;48.890;9.278;2023-07-29T00:50:19;1.50;;;1.50;;
9968;SDS011;5025;48.890;9.278;2023-07-29T00:52:45;1.60;;;1.50;;
9968;SDS011;5025;48.890;9.278;2023-07-29T00:55:10;1.60;;;1.60;;
9968;SDS011;5025;48.890;9.278;2023-07-29T00:57:36;1.53;;;1.47;;
9968;SDS011;5025;48.890;9.278;2023-07-29T01:00:01;1.60;;;1.60;;
9968;SDS011;5025;48.890;9.278;2023-07-29T01:02:29;1.77;;;1.67;;
9968;SDS011;5025;48.890;9.278;2023-07-29T01:04:55;1.80;;;1.70;;
9968;SDS011;5025;48.890;9.278;2023-07-29T01:12:58;1.70;;;1.70;;
9968;SDS011;5025;48.890;9.278;2023-07-29T01:15:43;1.50;;;1.50;;
9968;SDS011;5025;48.890;9.278;2023-07-29T01:18:10;1.60;;;1.60;;
9968;SDS011;5025;48.890;9.278;2023-07-29T01:20:40;1.80;;;1.60;;
9968;SDS011;5025;48.890;9.278;2023-07-29T01:23:08;1.53;;;1.43;;
9968;SDS011;5025;48.890;9.278;2023-07-29T01:25:34;1.30;;;1.30;;
9968;SDS011;5025;48.890;9.278;2023-07-29T01:27:59;1.50;;;1.40;;
9968;SDS011;5025;48.890;9.278;2023-07-29T01:30:26;2.17;;;1.40;;
9968;SDS011;5025;48.890;9.278;2023-07-29T01:35:48;1.40;;;1.40;;
9968;SDS011;5025;48.890;9.278;2023-07-29T01:38:20;1.43;;;1.43;;
9968;SDS011;5025;48.890;9.278;2023-07-29T01:40:53;1.70;;;1.70;;
9968;SDS011;5025;48.890;9.278;2023-07-29T01:43:18;1.70;;;1.60;;
9968;SDS011;5025;48.890;9.278;2023-07-29T01:45:48;1.80;;;1.70;;
9968;SDS011;5025;48.890;9.278;2023-07-29T01:48:13;1.47;;;1.47;;
9968;SDS011;5025;48.890;9.278;2023-07-29T01:50:39;1.87;;;1.77;;
9968;SDS011;5025;48.890;9.278;2023-07-29T01:53:04;1.60;;;1.50;;
9968;SDS011;5025;48.890;9.278;2023-07-29T01:55:29;1.77;;;1.77;;
9968;SDS011;5025;48.890;9.278;2023-07-29T01:57:55;2.03;;;1.40;;
9968;SDS011;5025;48.890;9.278;2023-07-29T02:00:20;1.50;;;1.50;;
9968;SDS011;5025;48.890;9.278;2023-07-29T02:02:46;1.70;;;1.60;;
9968;SDS011;5025;48.890;9.278;2023-07-29T02:05:11;1.57;;;1.47;;
9968;SDS011;5025;48.890;9.278;2023-07-29T02:07:36;1.43;;;1.43;;
9968;SDS011;5025;48.890;9.278;2023-07-29T02:10:01;1.50;;;1.50;;
9968;SDS011;5025;48.890;9.278;2023-07-29T02:12:27;1.50;;;1.50;;
9968;SDS011;5025;48.890;9.278;2023-07-29T02:14:52;1.63;;;1.57;;
9968;SDS011;5025;48.890;9.278;2023-07-29T02:17:17;1.50;;;1.50;;
9968;SDS011;5025;48.890;9.278;2023-07-29T02:19:43;1.50;;;1.50;;
9968;SDS011;5025;48.890;9.278;2023-07-29T02:22:09;1.40;;;1.40;;
9968;SDS011;5025;48.890;9.278;2023-07-29T02:24:36;1.37;;;1.37;;
9968;SDS011;5025;48.890;9.278;2023-07-29T02:27:01;1.60;;;1.50;;
9968;SDS011;5025;48.890;9.278;2023-07-29T02:29:26;1.60;;;1.50;;
9968;SDS011;5025;48.890;9.278;2023-07-29T02:31:51;1.60;;;1.50;;
9968;SDS011;5025;48.890;9.278;2023-07-29T02:34:17;1.40;;;1.40;;
9968;SDS011;5025;48.890;9.278;2023-07-29T02:36:42;1.33;;;1.33;;
9968;SDS011;5025;48.890;9.278;2023-07-29T02:39:07;1.20;;;1.20;;
9968;SDS011;5025;48.890;9.278;2023-07-29T02:41:33;1.37;;;1.37;;
9968;SDS011;5025;48.890;9.278;2023-07-29T02:43:58;1.20;;;1.20;;
9968;SDS011;5025;48.890;9.278;2023-07-29T02:46:23;1.40;;;1.40;;
9968;SDS011;5025;48.890;9.278;2023-07-29T02:48:50;1.23;;;1.23;;
9968;SDS011;5025;48.890;9.278;2023-07-29T02:51:16;1.43;;;1.33;;
9968;SDS011;5025;48.890;9.278;2023-07-29T02:53:41;1.23;;;1.20;;
9968;SDS011;5025;48.890;9.278;2023-07-29T02:56:06;1.43;;;1.30;;
9968;SDS011;5025;48.890;9.278;2023-07-29T02:58:34;1.23;;;1.23;;
9968;SDS011;5025;48.890;9.278;2023-07-29T03:01:03;1.60;;;1.50;;
9968;SDS011;5025;48.890;9.278;2023-07-29T03:03:29;1.37;;;1.33;;
9968;SDS011;5025;48.890;9.278;2023-07-29T03:05:59;1.40;;;1.40;;
9968;SDS011;5025;48.890;9.278;2023-07-29T03:08:28;1.20;;;1.20;;
9968;SDS011;5025;48.890;9.278;2023-07-29T03:10:53;1.33;;;1.23;;
9968;SDS011;5025;48.890;9.278;2023-07-29T03:13:19;1.50;;;1.40;;
9968;SDS011;5025;48.890;9.278;2023-07-29T03:15:44;2.00;;;1.30;;
9968;SDS011;5025;48.890;9.278;2023-07-29T03:18:09;1.33;;;1.33;;
9968;SDS011;5025;48.890;9.278;2023-07-29T03:20:35;1.20;;;1.20;;
9968;SDS011;5025;48.890;9.278;2023-07-29T03:23:00;1.23;;;1.23;;
9968;SDS011;5025;48.890;9.278;2023-07-29T03:25:25;1.23;;;1.23;;
9968;SDS011;5025;48.890;9.278;2023-07-29T03:27:51;1.50;;;1.50;;
9968;SDS011;5025;48.890;9.278;2023-07-29T03:30:19;1.20;;;1.20;;
9968;SDS011;5025;48.890;9.278;2023-07-29T03:32:46;1.40;;;1.40;;
9968;SDS011;5025;48.890;9.278;2023-07-29T03:35:11;1.20;;;1.20;;
9968;SDS011;5025;48.890;9.278;2023-07-29T03:37:36;1.30;;;1.20;;
9968;SDS011;5025;48.890;9.278;2023-07-29T03:40:02;1.53;;;1.53;;
9968;SDS011;5025;48.890;9.278;2023-07-29T03:42:28;1.33;;;1.33;;
9968;SDS011;5025;48.890;9.278;2023-07-29T03:44:53;1.40;;;1.40;;
9968;SDS011;5025;48.890;9.278;2023-07-29T03:47:18;1.37;;;1.37;;
9968;SDS011;5025;48.890;9.278;2023-07-29T03:49:43;1.50;;;1.50;;
9968;SDS011;5025;48.890;9.278;2023-07-29T03:52:09;1.20;;;1.20;;
9968;SDS011;5025;48.890;9.278;2023-07-29T03:54:35;1.20;;;1.20;;
9968;SDS011;5025;48.890;9.278;2023-07-29T03:57:00;1.40;;;1.40;;
9968;SDS011;5025;48.890;9.278;2023-07-29T03:59:25;1.40;;;1.40;;
9968;SDS011;5025;48.890;9.278;2023-07-29T04:01:50;1.60;;;1.50;;
9968;SDS011;5025;48.890;9.278;2023-07-29T04:04:16;1.40;;;1.40;;
9968;SDS011;5025;48.890;9.278;2023-07-29T04:06:41;1.20;;;1.20;;
9968;SDS011;5025;48.890;9.278;2023-07-29T04:09:06;1.37;;;1.37;;
9968;SDS011;5025;48.890;9.278;2023-07-29T04:11:32;1.33;;;1.33;;
9968;SDS011;5025;48.890;9.278;2023-07-29T04:13:58;1.30;;;1.30;;
9968;SDS011;5025;48.890;9.278;2023-07-29T04:16:23;1.40;;;1.40;;
9968;SDS011;5025;48.890;9.278;2023-07-29T04:18:49;1.40;;;1.40;;
9968;SDS011;5025;48.890;9.278;2023-07-29T04:21:14;1.50;;;1.40;;
9968;SDS011;5025;48.890;9.278;2023-07-29T04:23:39;1.73;;;1.63;;
9968;SDS011;5025;48.890;9.278;2023-07-29T04:26:05;1.57;;;1.57;;
9968;SDS011;5025;48.890;9.278;2023-07-29T04:28:30;1.40;;;1.40;;
9968;SDS011;5025;48.890;9.278;2023-07-29T04:30:56;1.60;;;1.50;;
9968;SDS011;5025;48.890;9.278;2023-07-29T04:33:21;1.57;;;1.47;;
9968;SDS011;5025;48.890;9.278;2023-07-29T04:35:46;2.17;;;1.60;;
9968;SDS011;5025;48.890;9.278;2023-07-29T04:38:11;1.63;;;1.60;;
9968;SDS011;5025;48.890;9.278;2023-07-29T04:40:37;1.40;;;1.40;;
9968;SDS011;5025;48.890;9.278;2023-07-29T04:43:02;1.40;;;1.40;;
9968;SDS011;5025;48.890;9.278;2023-07-29T04:45:28;2.00;;;1.90;;
9968;SDS011;5025;48.890;9.278;2023-07-29T04:47:54;2.27;;;2.00;;
9968;SDS011;5025;48.890;9.278;2023-07-29T04:50:19;2.03;;;1.70;;
9968;SDS011;5025;48.890;9.278;2023-07-29T04:52:45;1.93;;;1.83;;
9968;SDS011;5025;48.890;9.278;2023-07-29T04:55:10;2.60;;;2.00;;
9968;SDS011;5025;48.890;9.278;2023-07-29T04:57:35;1.70;;;1.60;;
9968;SDS011;5025;48.890;9.278;2023-07-29T05:00:02;1.77;;;1.67;;
9968;SDS011;5025;48.890;9.278;2023-07-29T05:02:28;1.60;;;1.50;;
9968;SDS011;5025;48.890;9.278;2023-07-29T05:04:53;1.60;;;1.60;;
9968;SDS011;5025;48.890;9.278;2023-07-29T05:07:18;1.70;;;1.60;;
9968;SDS011;5025;48.890;9.278;2023-07-29T05:09:44;3.10;;;1.93;;
9968;SDS011;5025;48.890;9.278;2023-07-29T05:12:09;1.83;;;1.73;;
9968;SDS011;5025;48.890;9.278;2023-07-29T05:14:34;2.00;;;1.80;;
9968;SDS011;5025;48.890;9.278;2023-07-29T05:16:59;1.60;;;1.60;;
9968;SDS011;5025;48.890;9.278;2023-07-29T05:19:25;1.80;;;1.70;;
9968;SDS011;5025;48.890;9.278;2023-07-29T05:21:51;3.13;;;1.90;;
9968;SDS011;5025;48.890;9.278;2023-07-29T05:24:16;1.80;;;1.70;;
9968;SDS011;5025;48.890;9.278;2023-07-29T05:26:41;1.87;;;1.80;;
9968;SDS011;5025;48.890;9.278;2023-07-29T05:29:06;1.80;;;1.70;;
9968;SDS011;5025;48.890;9.278;2023-07-29T05:31:32;2.10;;;2.00;;
9968;SDS011;5025;48.890;9.278;2023-07-29T05:33:57;1.90;;;1.80;;
9968;SDS011;5025;48.890;9.278;2023-07-29T05:36:23;1.90;;;1.80;;
9968;SDS011;5025;48.890;9.278;2023-07-29T05:38:48;2.20;;;2.10;;
9968;SDS011;5025;48.890;9.278;2023-07-29T05:41:13;2.10;;;2.00;;
9968;SDS011;5025;48.890;9.278;2023-07-29T05:43:38;2.30;;;2.20;;
9968;SDS011;5025;48.890;9.278;2023-07-29T05:46:04;2.17;;;2.07;;
9968;SDS011;5025;48.890;9.278;2023-07-29T05:48:29;2.10;;;2.00;;
9968;SDS011;5025;48.890;9.278;2023-07-29T05:50:54;2.10;;;2.00;;
9968;SDS011;5025;48.890;9.278;2023-07-29T05:53:19;1.90;;;1.80;;
9968;SDS011;5025;48.890;9.278;2023-07-29T05:55:45;2.00;;;1.90;;
9968;SDS011;5025;48.890;9.278;2023-07-29T05:58:10;1.87;;;1.77;;
9968;SDS011;5025;48.890;9.278;2023-07-29T06:00:36;2.00;;;1.90;;
9968;SDS011;5025;48.890;9.278;2023-07-29T06:03:01;1.80;;;1.70;;
9968;SDS011;5025;48.890;9.278;2023-07-29T06:05:26;1.90;;;1.80;;
9968;SDS011;5025;48.890;9.278;2023-07-29T06:07:51;2.10;;;2.00;;
9968;SDS011;5025;48.890;9.278;2023-07-29T06:10:17;1.90;;;1.80;;
9968;SDS011;5025;48.890;9.278;2023-07-29T06:12:43;2.33;;;2.13;;
9968;SDS011;5025;48.890;9.278;2023-07-29T06:15:09;2.17;;;2.07;;
9968;SDS011;5025;48.890;9.278;2023-07-29T06:17:34;2.40;;;2.10;;
9968;SDS011;5025;48.890;9.278;2023-07-29T06:19:59;3.47;;;2.17;;
9968;SDS011;5025;48.890;9.278;2023-07-29T06:22:25;2.10;;;2.00;;
9968;SDS011;5025;48.890;9.278;2023-07-29T06:24:50;2.13;;;2.03;;
9968;SDS011;5025;48.890;9.278;2023-07-29T06:27:15;2.03;;;1.93;;
9968;SDS011;5025;48.890;9.278;2023-07-29T06:29:40;2.20;;;2.10;;
9968;SDS011;5025;48.890;9.278;2023-07-29T06:32:06;1.80;;;1.80;;
9968;SDS011;5025;48.890;9.278;2023-07-29T06:34:31;2.10;;;2.00;;
9968;SDS011;5025;48.890;9.278;2023-07-29T06:36:56;2.33;;;2.13;;
9968;SDS011;5025;48.890;9.278;2023-07-29T06:39:22;2.20;;;2.10;;
9968;SDS011;5025;48.890;9.278;2023-07-29T06:41:47;2.10;;;2.00;;
9968;SDS011;5025;48.890;9.278;2023-07-29T06:44:13;2.13;;;2.03;;
9968;SDS011;5025;48.890;9.278;2023-07-29T06:46:38;1.90;;;1.80;;
9968;SDS011;5025;48.890;9.278;2023-07-29T06:49:04;1.80;;;1.80;;
9968;SDS011;5025;48.890;9.278;2023-07-29T06:51:30;2.43;;;2.27;;
9968;SDS011;5025;48.890;9.278;2023-07-29T06:53:57;2.03;;;1.93;;
9968;SDS011;5025;48.890;9.278;2023-07-29T06:56:23;2.20;;;2.10;;
9968;SDS011;5025;48.890;9.278;2023-07-29T06:58:48;2.20;;;2.10;;
9968;SDS011;5025;48.890;9.278;2023-07-29T07:01:13;2.20;;;2.10;;
9968;SDS011;5025;48.890;9.278;2023-07-29T07:03:38;2.30;;;2.20;;
9968;SDS011;5025;48.890;9.278;2023-07-29T07:06:03;2.33;;;2.13;;
9968;SDS011;5025;48.890;9.278;2023-07-29T07:08:30;2.20;;;2.10;;
9968;SDS011;5025;48.890;9.278;2023-07-29T07:10:56;2.20;;;2.10;;
9968;SDS011;5025;48.890;9.278;2023-07-29T07:13:21;2.10;;;2.00;;
9968;SDS011;5025;48.890;9.278;2023-07-29T07:15:46;2.40;;;2.30;;
9968;SDS011;5025;48.890;9.278;2023-07-29T07:18:12;2.00;;;1.90;;
9968;SDS011;5025;48.890;9.278;2023-07-29T07:20:37;2.00;;;1.90;;
9968;SDS011;5025;48.890;9.278;2023-07-29T07:23:02;2.60;;;2.20;;
9968;SDS011;5025;48.890;9.278;2023-07-29T07:25:28;2.13;;;1.97;;
9968;SDS011;5025;48.890;9.278;2023-07-29T07:27:53;2.27;;;2.17;;
9968;SDS011;5025;48.890;9.278;2023-07-29T07:30:18;2.30;;;2.20;;
9968;SDS011;5025;48.890;9.278;2023-07-29T07:32:43;2.20;;;2.10;;
9968;SDS011;5025;48.890;9.278;2023-07-29T07:35:10;2.10;;;2.00;;
9968;SDS011;5025;48.890;9.278;2023-07-29T07:37:35;2.37;;;2.23;;
9968;SDS011;5025;48.890;9.278;2023-07-29T07:40:00;2.30;;;2.20;;
9968;SDS011;5025;48.890;9.278;2023-07-29T07:42:25;2.30;;;2.07;;
9968;SDS011;5025;48.890;9.278;2023-07-29T07:44:51;2.77;;;2.43;;
9968;SDS011;5025;48.890;9.278;2023-07-29T07:47:16;3.67;;;2.60;;
9968;SDS011;5025;48.890;9.278;2023-07-29T07:49:41;2.57;;;2.37;;
9968;SDS011;5025;48.890;9.278;2023-07-29T07:52:07;2.67;;;2.40;;
9968;SDS011;5025;48.890;9.278;2023-07-29T07:54:32;2.50;;;2.30;;
9968;SDS011;5025;48.890;9.278;2023-07-29T07:56:57;2.40;;;2.20;;
9968;SDS011;5025;48.890;9.278;2023-07-29T07:59:22;2.50;;;2.30;;
9968;SDS011;5025;48.890;9.278;2023-07-29T08:01:48;2.33;;;2.23;;
9968;SDS011;5025;48.890;9.278;2023-07-29T08:04:13;2.40;;;2.30;;
9968;SDS011;5025;48.890;9.278;2023-07-29T08:06:38;2.50;;;2.40;;
9968;SDS011;5025;48.890;9.278;2023-07-29T08:09:03;2.70;;;2.50;;
9968;SDS011;5025;48.890;9.278;2023-07-29T08:11:29;2.47;;;2.37;;
9968;SDS011;5025;48.890;9.278;2023-07-29T08:13:54;3.63;;;2.30;;
9968;SDS011;5025;48.890;9.278;2023-07-29T08:16:19;2.23;;;2.13;;
9968;SDS011;5025;48.890;9.278;2023-07-29T08:18:45;2.20;;;2.00;;
9968;SDS011;5025;48.890;9.278;2023-07-29T08:21:10;2.00;;;1.90;;
9968;SDS011;5025;48.890;9.278;2023-07-29T08:23:35;2.10;;;2.00;;
9968;SDS011;5025;48.890;9.278;2023-07-29T08:26:03;2.00;;;1.90;;
9968;SDS011;5025;48.890;9.278;2023-07-29T08:28:31;1.93;;;1.83;;
9968;SDS011;5025;48.890;9.278;2023-07-29T08:30:57;2.07;;;1.90;;
9968;SDS011;5025;48.890;9.278;2023-07-29T08:33:23;2.00;;;1.90;;
9968;SDS011;5025;48.890;9.278;2023-07-29T08:35:48;2.00;;;1.80;;
9968;SDS011;5025;48.890;9.278;2023-07-29T08:38:14;2.40;;;1.90;;
9968;SDS011;5025;48.890;9.278;2023-07-29T08:40:42;1.80;;;1.70;;
9968;SDS011;5025;48.890;9.278;2023-07-29T08:43:10;1.80;;;1.70;;
9968;SDS011;5025;48.890;9.278;2023-07-29T08:45:37;1.70;;;1.60;;
9968;SDS011;5025;48.890;9.278;2023-07-29T08:48:06;1.90;;;1.80;;
9968;SDS011;5025;48.890;9.278;2023-07-29T08:50:33;2.13;;;2.00;;
9968;SDS011;5025;48.890;9.278;2023-07-29T08:53:01;2.47;;;2.30;;
9968;SDS011;5025;48.890;9.278;2023-07-29T08:55:29;2.83;;;2.37;;
9968;SDS011;5025;48.890;9.278;2023-07-29T08:57:54;2.30;;;2.20;;
9968;SDS011;5025;48.890;9.278;2023-07-29T09:00:20;2.13;;;2.03;;
9968;SDS011;5025;48.890;9.278;2023-07-29T09:02:46;2.20;;;1.97;;
9968;SDS011;5025;48.890;9.278;2023-07-29T09:05:12;1.87;;;1.80;;
9968;SDS011;5025;48.890;9.278;2023-07-29T09:07:37;2.10;;;1.87;;
9968;SDS011;5025;48.890;9.278;2023-07-29T09:10:03;2.20;;;2.10;;
9968;SDS011;5025;48.890;9.278;2023-07-29T09:12:29;1.87;;;1.77;;
9968;SDS011;5025;48.890;9.278;2023-07-29T09:14:54;2.23;;;2.03;;
9968;SDS011;5025;48.890;9.278;2023-07-29T09:17:19;2.23;;;1.90;;
9968;SDS011;5025;48.890;9.278;2023-07-29T09:19:49;2.03;;;1.93;;
9968;SDS011;5025;48.890;9.278;2023-07-29T09:22:19;1.80;;;1.70;;
9968;SDS011;5025;48.890;9.278;2023-07-29T09:24:45;1.70;;;1.63;;
9968;SDS011;5025;48.890;9.278;2023-07-29T09:27:24;1.67;;;1.60;;
9968;SDS011;5025;48.890;9.278;2023-07-29T09:29:51;1.60;;;1.60;;
9968;SDS011;5025;48.890;9.278;2023-07-29T09:32:17;2.17;;;1.80;;
9968;SDS011;5025;48.890;9.278;2023-07-29T09:34:44;1.50;;;1.50;;
9968;SDS011;5025;48.890;9.278;2023-07-29T09:37:14;2.50;;;1.60;;
9968;SDS011;5025;48.890;9.278;2023-07-29T09:39:43;1.70;;;1.30;;
9968;SDS011;5025;48.890;9.278;2023-07-29T09:42:11;1.43;;;1.40;;
9968;SDS011;5025;48.890;9.278;2023-07-29T09:44:40;1.77;;;1.67;;
9968;SDS011;5025;48.890;9.278;2023-07-29T09:47:06;1.90;;;1.80;;
9968;SDS011;5025;48.890;9.278;2023-07-29T09:49:34;1.50;;;1.40;;
9968;SDS011;5025;48.890;9.278;2023-07-29T09:52:01;1.70;;;1.60;;
9968;SDS011;5025;48.890;9.278;2023-07-29T09:54:29;1.60;;;1.50;;
9968;SDS011;5025;48.890;9.278;2023-07-29T09:56:55;1.63;;;1.53;;
9968;SDS011;5025;48.890;9.278;2023-07-29T09:59:22;1.33;;;1.33;;
9968;SDS011;5025;48.890;9.278;2023-07-29T10:01:48;1.30;;;1.30;;
9968;SDS011;5025;48.890;9.278;2023-07-29T10:04:14;1.30;;;1.30;;
9968;SDS011;5025;48.890;9.278;2023-07-29T10:06:41;1.67;;;1.57;;
9968;SDS011;5025;48.890;9.278;2023-07-29T10:09:07;1.63;;;1.53;;
9968;SDS011;5025;48.890;9.278;2023-07-29T10:11:35;1.30;;;1.30;;
9968;SDS011;5025;48.890;9.278;2023-07-29T10:14:02;1.40;;;1.40;;
9968;SDS011;5025;48.890;9.278;2023-07-29T10:16:27;2.00;;;1.90;;
9968;SDS011;5025;48.890;9.278;2023-07-29T10:18:53;2.20;;;2.00;;
9968;SDS011;5025;48.890;9.278;2023-07-29T10:21:19;2.40;;;1.67;;
9968;SDS011;5025;48.890;9.278;2023-07-29T10:23:47;2.07;;;1.60;;
9968;SDS011;5025;48.890;9.278;2023-07-29T10:26:18;2.20;;;1.50;;
9968;SDS011;5025;48.890;9.278;2023-07-29T10:28:46;2.17;;;1.50;;
9968;SDS011;5025;48.890;9.278;2023-07-29T10:31:12;1.60;;;1.50;;
9968;SDS011;5025;48.890;9.278;2023-07-29T10:33:40;1.97;;;1.40;;
9968;SDS011;5025;48.890;9.278;2023-07-29T10:36:06;1.60;;;1.43;;
9968;SDS011;5025;48.890;9.278;2023-07-29T10:38:32;1.50;;;1.40;;
9968;SDS011;5025;48.890;9.278;2023-07-29T10:40:57;1.77;;;1.67;;
9968;SDS011;5025;48.890;9.278;2023-07-29T10:43:26;2.00;;;1.63;;
9968;SDS011;5025;48.890;9.278;2023-07-29T10:45:55;2.10;;;1.80;;
9968;SDS011;5025;48.890;9.278;2023-07-29T10:54:02;2.30;;;1.70;;
9968;SDS011;5025;48.890;9.278;2023-07-29T10:56:35;1.80;;;1.70;;
9968;SDS011;5025;48.890;9.278;2023-07-29T11:01:43;2.33;;;1.50;;
9968;SDS011;5025;48.890;9.278;2023-07-29T11:07:01;1.50;;;1.40;;
9968;SDS011;5025;48.890;9.278;2023-07-29T11:17:37;1.30;;;1.30;;
9968;SDS011;5025;48.890;9.278;2023-07-29T11:20:05;1.57;;;1.30;;
9968;SDS011;5025;48.890;9.278;2023-07-29T11:22:32;1.77;;;1.10;;
9968;SDS011;5025;48.890;9.278;2023-07-29T11:24:57;1.20;;;1.20;;
9968;SDS011;5025;48.890;9.278;2023-07-29T11:27:23;1.20;;;1.20;;
9968;SDS011;5025;48.890;9.278;2023-07-29T11:29:48;1.13;;;1.13;;
9968;SDS011;5025;48.890;9.278;2023-07-29T11:32:13;1.13;;;1.13;;
9968;SDS011;5025;48.890;9.278;2023-07-29T11:34:39;1.17;;;1.10;;
9968;SDS011;5025;48.890;9.278;2023-07-29T11:37:05;1.10;;;1.10;;
9968;SDS011;5025;48.890;9.278;2023-07-29T11:39:39;1.47;;;1.10;;
9968;SDS011;5025;48.890;9.278;2023-07-29T11:42:05;1.03;;;1.03;;
9968;SDS011;5025;48.890;9.278;2023-07-29T11:44:31;2.57;;;1.03;;
9968;SDS011;5025;48.890;9.278;2023-07-29T11:46:56;1.10;;;1.10;;
9968;SDS011;5025;48.890;9.278;2023-07-29T11:49:21;1.10;;;1.10;;
9968;SDS011;5025;48.890;9.278;2023-07-29T11:51:47;1.23;;;1.23;;
9968;SDS011;5025;48.890;9.278;2023-07-29T11:54:12;1.37;;;1.27;;
9968;SDS011;5025;48.890;9.278;2023-07-29T11:56:37;1.10;;;1.10;;
9968;SDS011;5025;48.890;9.278;2023-07-29T11:59:02;1.23;;;1.23;;
9968;SDS011;5025;48.890;9.278;2023-07-29T12:01:28;1.40;;;1.30;;
9968;SDS011;5025;48.890;9.278;2023-07-29T12:03:54;1.20;;;1.20;;
9968;SDS011;5025;48.890;9.278;2023-07-29T12:06:20;1.10;;;1.10;;
9968;SDS011;5025;48.890;9.278;2023-07-29T12:08:47;1.20;;;1.20;;
9968;SDS011;5025;48.890;9.278;2023-07-29T12:11:12;1.40;;;1.30;;
9968;SDS011;5025;48.890;9.278;2023-07-29T12:13:37;1.40;;;1.40;;
9968;SDS011;5025;48.890;9.278;2023-07-29T12:16:03;1.50;;;1.40;;
9968;SDS011;5025;48.890;9.278;2023-07-29T12:18:29;1.40;;;1.40;;
9968;SDS011;5025;48.890;9.278;2023-07-29T12:20:56;1.20;;;1.20;;
9968;SDS011;5025;48.890;9.278;2023-07-29T12:23:24;1.43;;;1.43;;
9968;SDS011;5025;48.890;9.278;2023-07-29T12:25:50;1.50;;;1.50;;
9968;SDS011;5025;48.890;9.278;2023-07-29T12:28:17;1.30;;;1.30;;
9968;SDS011;5025;48.890;9.278;2023-07-29T12:30:42;1.63;;;1.40;;
9968;SDS011;5025;48.890;9.278;2023-07-29T12:33:08;2.27;;;1.67;;
9968;SDS011;5025;48.890;9.278;2023-07-29T12:35:36;1.60;;;1.50;;
9968;SDS011;5025;48.890;9.278;2023-07-29T12:38:02;1.70;;;1.70;;
9968;SDS011;5025;48.890;9.278;2023-07-29T12:40:27;1.33;;;1.33;;
9968;SDS011;5025;48.890;9.278;2023-07-29T12:42:53;1.40;;;1.30;;
9968;SDS011;5025;48.890;9.278;2023-07-29T12:45:19;1.63;;;1.53;;
9968;SDS011;5025;48.890;9.278;2023-07-29T12:47:46;1.90;;;1.80;;
9968;SDS011;5025;48.890;9.278;2023-07-29T12:50:11;1.60;;;1.60;;
9968;SDS011;5025;48.890;9.278;2023-07-29T12:52:36;1.83;;;1.73;;
9968;SDS011;5025;48.890;9.278;2023-07-29T12:55:02;1.60;;;1.60;;
9968;SDS011;5025;48.890;9.278;2023-07-29T12:57:28;1.80;;;1.70;;
9968;SDS011;5025;48.890;9.278;2023-07-29T12:59:53;1.87;;;1.83;;
9968;SDS011;5025;48.890;9.278;2023-07-29T13:02:18;1.63;;;1.63;;
9968;SDS011;5025;48.890;9.278;2023-07-29T13:04:43;1.70;;;1.60;;
9968;SDS011;5025;48.890;9.278;2023-07-29T13:07:09;1.87;;;1.77;;
9968;SDS011;5025;48.890;9.278;2023-07-29T13:09:34;2.10;;;2.00;;
9968;SDS011;5025;48.890;9.278;2023-07-29T13:11:59;1.83;;;1.73;;
9968;SDS011;5025;48.890;9.278;2023-07-29T13:14:24;1.80;;;1.70;;
9968;SDS011;5025;48.890;9.278;2023-07-29T13:16:51;1.80;;;1.70;;
9968;SDS011;5025;48.890;9.278;2023-07-29T13:19:18;1.90;;;1.80;;
9968;SDS011;5025;48.890;9.278;2023-07-29T13:21:43;1.70;;;1.60;;
9968;SDS011;5025;48.890;9.278;2023-07-29T13:24:08;1.93;;;1.83;;
9968;SDS011;5025;48.890;9.278;2023-07-29T13:26:34;2.10;;;1.87;;
9968;SDS011;5025;48.890;9.278;2023-07-29T13:28:59;1.87;;;1.77;;
9968;SDS011;5025;48.890;9.278;2023-07-29T13:31:24;1.60;;;1.60;;
9968;SDS011;5025;48.890;9.278;2023-07-29T13:33:50;1.60;;;1.60;;
9968;SDS011;5025;48.890;9.278;2023-07-29T13:36:15;1.63;;;1.53;;
9968;SDS011;5025;48.890;9.278;2023-07-29T13:38:41;1.70;;;1.70;;
9968;SDS011;5025;48.890;9.278;2023-07-29T13:41:06;1.50;;;1.50;;
9968;SDS011;5025;48.890;9.278;2023-07-29T13:43:31;1.50;;;1.50;;
9968;SDS011;5025;48.890;9.278;2023-07-29T13:45:57;1.60;;;1.60;;
9968;SDS011;5025;48.890;9.278;2023-07-29T13:48:22;1.70;;;1.70;;
9968;SDS011;5025;48.890;9.278;2023-07-29T13:50:47;1.53;;;1.53;;
9968;SDS011;5025;48.890;9.278;2023-07-29T13:53:13;1.77;;;1.77;;
9968;SDS011;5025;48.890;9.278;2023-07-29T13:55:38;1.87;;;1.77;;
9968;SDS011;5025;48.890;9.278;2023-07-29T13:58:03;1.67;;;1.60;;
9968;SDS011;5025;48.890;9.278;2023-07-29T14:00:29;1.70;;;1.60;;
9968;SDS011;5025;48.890;9.278;2023-07-29T14:02:54;1.90;;;1.80;;
9968;SDS011;5025;48.890;9.278;2023-07-29T14:05:19;1.63;;;1.63;;
9968;SDS011;5025;48.890;9.278;2023-07-29T14:07:44;1.57;;;1.57;;
9968;SDS011;5025;48.890;9.278;2023-07-29T14:10:10;1.60;;;1.60;;
9968;SDS011;5025;48.890;9.278;2023-07-29T14:12:35;1.50;;;1.50;;
9968;SDS011;5025;48.890;9.278;2023-07-29T14:15:00;1.83;;;1.73;;
9968;SDS011;5025;48.890;9.278;2023-07-29T14:17:27;1.80;;;1.70;;
9968;SDS011;5025;48.890;9.278;2023-07-29T14:19:52;1.87;;;1.77;;
9968;SDS011;5025;48.890;9.278;2023-07-29T14:22:17;1.73;;;1.67;;
9968;SDS011;5025;48.890;9.278;2023-07-29T14:24:43;2.00;;;1.90;;
9968;SDS011;5025;48.890;9.278;2023-07-29T14:27:08;1.50;;;1.50;;
9968;SDS011;5025;48.890;9.278;2023-07-29T14:29:33;1.50;;;1.40;;
9968;SDS011;5025;48.890;9.278;2023-07-29T14:31:58;1.60;;;1.60;;
9968;SDS011;5025;48.890;9.278;2023-07-29T14:34:24;1.60;;;1.50;;
9968;SDS011;5025;48.890;9.278;2023-07-29T14:36:49;1.80;;;1.77;;
9968;SDS011;5025;48.890;9.278;2023-07-29T14:39:14;1.70;;;1.60;;
9968;SDS011;5025;48.890;9.278;2023-07-29T14:41:39;1.47;;;1.47;;
9968;SDS011;5025;48.890;9.278;2023-07-29T14:44:05;1.90;;;1.80;;
9968;SDS011;5025;48.890;9.278;2023-07-29T14:46:30;1.57;;;1.57;;
9968;SDS011;5025;48.890;9.278;2023-07-29T14:48:55;1.80;;;1.70;;
9968;SDS011;5025;48.890;9.278;2023-07-29T14:51:21;1.90;;;1.80;;
9968;SDS011;5025;48.890;9.278;2023-07-29T14:53:47;1.60;;;1.60;;
9968;SDS011;5025;48.890;9.278;2023-07-29T14:56:12;1.70;;;1.70;;
9968;SDS011;5025;48.890;9.278;2023-07-29T14:58:40;1.70;;;1.60;;
9968;SDS011;5025;48.890;9.278;2023-07-29T15:01:07;1.73;;;1.73;;
9968;SDS011;5025;48.890;9.278;2023-07-29T15:03:33;1.77;;;1.67;;
9968;SDS011;5025;48.890;9.278;2023-07-29T15:05:58;1.80;;;1.70;;
9968;SDS011;5025;48.890;9.278;2023-07-29T15:08:25;1.70;;;1.60;;
9968;SDS011;5025;48.890;9.278;2023-07-29T15:10:50;1.70;;;1.60;;
9968;SDS011;5025;48.890;9.278;2023-07-29T15:13:16;1.90;;;1.80;;
9968;SDS011;5025;48.890;9.278;2023-07-29T15:15:44;1.57;;;1.57;;
9968;SDS011;5025;48.890;9.278;2023-07-29T15:18:10;1.80;;;1.70;;
9968;SDS011;5025;48.890;9.278;2023-07-29T15:20:35;1.90;;;1.80;;
9968;SDS011;5025;48.890;9.278;2023-07-29T15:23:01;1.60;;;1.50;;
9968;SDS011;5025;48.890;9.278;2023-07-29T15:25:26;2.00;;;1.90;;
9968;SDS011;5025;48.890;9.278;2023-07-29T15:27:51;2.10;;;2.00;;
9968;SDS011;5025;48.890;9.278;2023-07-29T15:30:17;2.10;;;2.00;;
9968;SDS011;5025;48.890;9.278;2023-07-29T15:32:42;1.97;;;1.87;;
9968;SDS011;5025;48.890;9.278;2023-07-29T15:35:08;1.77;;;1.67;;